createdAt,value
2023-06-04T00:02:22.891Z,100.00
2023-06-04T00:04:49.803Z,100.00
2023-06-04T00:07:16.730Z,100.00
2023-06-04T00:09:45.234Z,100.00
2023-06-04T00:12:12.306Z,100.00
2023-06-04T00:14:39.656Z,100.00
2023-06-04T00:17:07.155Z,100.00
2023-06-04T00:19:35.189Z,100.00
2023-06-04T00:22:02.159Z,100.00
2023-06-04T00:24:28.947Z,100.00
2023-06-04T00:26:55.748Z,100.00
2023-06-04T00:29:22.518Z,100.00
2023-06-04T00:31:50.114Z,100.00
2023-06-04T00:34:19.516Z,100.00
2023-06-04T00:36:46.434Z,100.00
2023-06-04T00:39:13.359Z,100.00
2023-06-04T00:41:40.433Z,100.00
2023-06-04T00:44:07.816Z,100.00
2023-06-04T00:46:39.363Z,100.00
2023-06-04T00:49:07.328Z,100.00
2023-06-04T00:51:34.415Z,100.00
2023-06-04T00:54:10.371Z,100.00
2023-06-04T00:56:38.491Z,100.00
2023-06-04T00:59:09.922Z,100.00
2023-06-04T01:01:41.917Z,100.00
2023-06-04T01:04:30.509Z,100.00
2023-06-04T01:06:59.924Z,100.00
2023-06-04T01:09:28.977Z,100.00
2023-06-04T01:11:59.390Z,100.00
2023-06-04T01:14:27.216Z,100.00
2023-06-04T01:17:04.544Z,100.00
2023-06-04T01:19:43.174Z,100.00
2023-06-04T01:22:26.071Z,100.00
2023-06-04T01:24:57.447Z,100.00
2023-06-04T01:27:24.853Z,100.00
2023-06-04T01:29:52.600Z,100.00
2023-06-04T01:32:19.791Z,100.00
2023-06-04T01:34:47.946Z,100.00
2023-06-04T01:37:14.846Z,100.00
2023-06-04T01:39:42.620Z,100.00
2023-06-04T01:42:10.038Z,100.00
2023-06-04T01:44:38.546Z,100.00
2023-06-04T01:47:05.522Z,100.00
2023-06-04T01:49:32.283Z,100.00
2023-06-04T01:51:59.039Z,100.00
2023-06-04T01:54:26.519Z,100.00
2023-06-04T01:56:53.596Z,100.00
2023-06-04T01:59:21.478Z,100.00
2023-06-04T02:01:48.304Z,100.00
2023-06-04T02:04:15.161Z,100.00
2023-06-04T02:06:41.958Z,100.00
2023-06-04T02:09:09.538Z,100.00
2023-06-04T02:11:36.422Z,100.00
2023-06-04T02:14:03.381Z,100.00
2023-06-04T02:16:30.223Z,100.00
2023-06-04T02:18:57.007Z,100.00
2023-06-04T02:21:24.357Z,100.00
2023-06-04T02:23:51.277Z,100.00
2023-06-04T02:26:18.584Z,100.00
2023-06-04T02:28:45.550Z,100.00
2023-06-04T02:31:12.319Z,100.00
2023-06-04T02:33:39.258Z,100.00
2023-06-04T02:36:06.707Z,100.00
2023-06-04T02:38:34.671Z,100.00
2023-06-04T02:41:01.565Z,100.00
2023-06-04T02:43:28.345Z,100.00
2023-06-04T02:45:55.142Z,100.00
2023-06-04T02:48:22.483Z,100.00
2023-06-04T02:50:49.294Z,100.00
2023-06-04T02:53:16.085Z,100.00
2023-06-04T02:55:42.985Z,100.00
2023-06-04T02:58:09.994Z,100.00
2023-06-04T03:00:36.814Z,100.00
2023-06-04T03:03:04.188Z,100.00
2023-06-04T03:05:33.224Z,100.00
2023-06-04T03:08:03.882Z,100.00
2023-06-04T03:10:32.369Z,100.00
2023-06-04T03:12:59.511Z,100.00
2023-06-04T03:15:26.378Z,100.00
2023-06-04T03:17:53.919Z,100.00
2023-06-04T03:20:20.733Z,100.00
2023-06-04T03:22:47.551Z,100.00
2023-06-04T03:25:14.989Z,100.00
2023-06-04T03:27:41.838Z,100.00
2023-06-04T03:30:09.372Z,100.00
2023-06-04T03:32:36.709Z,100.00
2023-06-04T03:35:04.498Z,100.00
2023-06-04T03:37:31.502Z,100.00
2023-06-04T03:39:58.262Z,100.00
2023-06-04T03:42:25.050Z,100.00
2023-06-04T03:44:52.390Z,100.00
2023-06-04T03:47:19.429Z,100.00
2023-06-04T03:49:46.300Z,100.00
2023-06-04T03:52:13.277Z,100.00
2023-06-04T03:54:40.643Z,100.00
2023-06-04T03:57:07.487Z,100.00
2023-06-04T03:59:34.368Z,100.00
2023-06-04T04:02:01.434Z,100.00
2023-06-04T04:04:28.414Z,100.00
2023-06-04T04:06:55.250Z,100.00
2023-06-04T04:09:22.016Z,100.00
2023-06-04T04:11:48.786Z,100.00
2023-06-04T04:14:15.889Z,100.00
2023-06-04T04:16:42.985Z,100.00
2023-06-04T04:19:10.007Z,100.00
2023-06-04T04:21:37.776Z,100.00
2023-06-04T04:24:05.566Z,100.00
2023-06-04T04:26:33.378Z,100.00
2023-06-04T04:29:01.151Z,100.00
2023-06-04T04:31:29.019Z,100.00
2023-06-04T04:33:59.205Z,100.00
2023-06-04T04:36:26.336Z,100.00
2023-06-04T04:38:55.987Z,100.00
2023-06-04T04:41:24.300Z,100.00
2023-06-04T04:43:53.891Z,100.00
2023-06-04T04:46:20.766Z,100.00
2023-06-04T04:48:48.030Z,100.00
2023-06-04T04:51:15.259Z,100.00
2023-06-04T04:53:42.699Z,100.00
2023-06-04T04:56:09.654Z,100.00
2023-06-04T04:58:36.440Z,100.00
2023-06-04T05:01:03.239Z,100.00
2023-06-04T05:03:30.060Z,100.00
2023-06-04T05:05:57.492Z,100.00
2023-06-04T05:08:24.553Z,100.00
2023-06-04T05:10:54.085Z,100.00
2023-06-04T05:13:21.640Z,100.00
2023-06-04T05:15:49.010Z,100.00
2023-06-04T05:18:17.632Z,100.00
2023-06-04T05:20:44.521Z,100.00
2023-06-04T05:23:13.595Z,100.00
2023-06-04T05:25:41.979Z,100.00
2023-06-04T05:28:08.807Z,100.00
2023-06-04T05:30:35.957Z,100.00
2023-06-04T05:33:02.803Z,100.00
2023-06-04T05:35:29.622Z,100.00
2023-06-04T05:37:56.444Z,100.00
2023-06-04T05:40:23.346Z,100.00
2023-06-04T05:42:50.554Z,100.00
2023-06-04T05:45:17.727Z,100.00
2023-06-04T05:47:44.724Z,100.00
2023-06-04T05:50:11.699Z,100.00
2023-06-04T05:52:38.947Z,100.00
2023-06-04T05:55:08.925Z,100.00
2023-06-04T05:57:36.258Z,100.00
2023-06-04T06:00:07.393Z,100.00
2023-06-04T06:02:35.948Z,100.00
2023-06-04T06:05:02.916Z,100.00
2023-06-04T06:07:29.842Z,100.00
2023-06-04T06:09:56.699Z,100.00
2023-06-04T06:12:23.673Z,100.00
2023-06-04T06:14:50.561Z,100.00
2023-06-04T06:17:17.820Z,100.00
2023-06-04T06:19:44.664Z,100.00
2023-06-04T06:22:11.531Z,100.00
2023-06-04T06:24:38.511Z,100.00
2023-06-04T06:27:06.183Z,100.00
2023-06-04T06:29:33.125Z,100.00
2023-06-04T06:32:00.498Z,100.00
2023-06-04T06:34:27.918Z,100.00
2023-06-04T06:36:54.779Z,100.00
2023-06-04T06:39:21.646Z,100.00
2023-06-04T06:41:48.771Z,100.00
2023-06-04T06:44:15.625Z,100.00
2023-06-04T06:46:42.457Z,100.00
2023-06-04T06:49:09.609Z,100.00
2023-06-04T06:51:36.613Z,100.00
2023-06-04T06:54:03.458Z,100.00
2023-06-04T06:56:31.769Z,100.00
2023-06-04T06:58:58.533Z,100.00
2023-06-04T07:01:25.371Z,100.00
2023-06-04T07:03:52.290Z,100.00
2023-06-04T07:06:19.271Z,100.00
2023-06-04T07:08:46.105Z,100.00
2023-06-04T07:11:13.446Z,100.00
2023-06-04T07:13:40.587Z,100.00
2023-06-04T07:16:07.614Z,100.00
2023-06-04T07:18:34.588Z,100.00
2023-06-04T07:21:01.423Z,100.00
2023-06-04T07:23:28.727Z,100.00
2023-06-04T07:25:55.727Z,100.00
2023-06-04T07:28:22.552Z,100.00
2023-06-04T07:30:49.376Z,100.00
2023-06-04T07:33:16.346Z,100.00
2023-06-04T07:35:44.441Z,100.00
2023-06-04T07:38:11.279Z,100.00
2023-06-04T07:40:38.168Z,100.00
2023-06-04T07:43:04.958Z,100.00
2023-06-04T07:45:34.871Z,100.00
2023-06-04T07:48:02.762Z,100.00
2023-06-04T07:50:29.640Z,100.00
2023-06-04T07:52:56.440Z,100.00
2023-06-04T07:55:23.726Z,100.00
2023-06-04T07:57:50.662Z,100.00
2023-06-04T08:00:19.100Z,100.00
2023-06-04T08:02:46.138Z,100.00
2023-06-04T08:05:15.007Z,100.00
2023-06-04T08:07:42.780Z,100.00
2023-06-04T08:10:10.322Z,100.00
2023-06-04T08:12:37.278Z,100.00
2023-06-04T08:15:04.667Z,100.00
2023-06-04T08:17:31.458Z,100.00
2023-06-04T08:19:58.512Z,100.00
2023-06-04T08:22:25.688Z,100.00
2023-06-04T08:24:52.479Z,100.00
2023-06-04T08:27:19.229Z,100.00
2023-06-04T08:29:45.997Z,100.00
2023-06-04T08:32:12.821Z,100.00
2023-06-04T08:34:39.572Z,100.00
2023-06-04T08:37:07.291Z,100.00
2023-06-04T08:39:34.682Z,100.00
2023-06-04T08:42:05.053Z,100.00
2023-06-04T08:44:31.940Z,100.00
2023-06-04T08:47:09.850Z,100.00
2023-06-04T08:49:37.865Z,100.00
2023-06-04T08:52:05.323Z,100.00
2023-06-04T08:54:33.468Z,100.00
2023-06-04T08:57:01.838Z,100.00
2023-06-04T08:59:29.449Z,100.00
2023-06-04T09:01:56.939Z,100.00
2023-06-04T09:04:24.305Z,100.00
2023-06-04T09:06:51.503Z,100.00
2023-06-04T09:09:20.079Z,100.00
2023-06-04T09:11:49.765Z,100.00
2023-06-04T09:14:19.995Z,100.00
2023-06-04T09:16:54.675Z,100.00
2023-06-04T09:19:22.554Z,100.00
2023-06-04T09:21:54.500Z,100.00
2023-06-04T09:24:26.932Z,100.00
2023-06-04T09:27:49.593Z,100.00
2023-06-04T09:30:16.636Z,100.00
2023-06-04T09:32:43.556Z,100.00
2023-06-04T09:35:15.713Z,100.00
2023-06-04T09:37:44.134Z,100.00
2023-06-04T09:40:11.644Z,100.00
2023-06-04T09:42:50.726Z,100.00
2023-06-04T09:45:29.934Z,100.00
2023-06-04T09:47:57.006Z,100.00
2023-06-04T09:50:28.900Z,100.00
2023-06-04T09:52:55.930Z,100.00
2023-06-04T09:55:23.842Z,100.00
2023-06-04T09:57:52.503Z,100.00
2023-06-04T10:00:22.152Z,100.00
2023-06-04T10:02:50.086Z,100.00
2023-06-04T10:05:17.625Z,100.00
2023-06-04T10:07:47.829Z,100.00
2023-06-04T10:10:21.423Z,100.00
2023-06-04T10:12:55.957Z,100.00
2023-06-04T10:15:22.803Z,100.00
2023-06-04T10:17:51.090Z,100.00
2023-06-04T10:20:19.376Z,100.00
2023-06-04T10:22:46.389Z,100.00
2023-06-04T10:25:13.920Z,100.00
2023-06-04T10:27:41.586Z,100.00
2023-06-04T10:30:09.566Z,100.00
2023-06-04T10:32:36.632Z,100.00
2023-06-04T10:35:09.376Z,100.00
2023-06-04T10:37:36.786Z,100.00
2023-06-04T10:40:06.645Z,100.00
2023-06-04T10:42:41.962Z,100.00
2023-06-04T10:45:11.215Z,100.00
2023-06-04T10:47:41.987Z,100.00
2023-06-04T10:50:14.236Z,100.00
2023-06-04T10:52:58.703Z,100.00
2023-06-04T10:55:26.946Z,100.00
2023-06-04T10:57:55.046Z,100.00
2023-06-04T11:00:22.556Z,100.00
2023-06-04T11:02:58.640Z,100.00
2023-06-04T11:05:44.060Z,100.00
2023-06-04T11:08:12.697Z,100.00
2023-06-04T11:10:44.784Z,100.00
2023-06-04T11:13:11.747Z,100.00
2023-06-04T11:15:50.093Z,100.00
2023-06-04T11:18:21.687Z,100.00
2023-06-04T11:20:51.167Z,100.00
2023-06-04T11:23:18.928Z,100.00
2023-06-04T11:25:47.003Z,100.00
2023-06-04T11:28:19.374Z,100.00
2023-06-04T11:31:04.611Z,100.00
2023-06-04T11:33:31.981Z,100.00
2023-06-04T11:35:58.831Z,100.00
2023-06-04T11:38:25.656Z,100.00
2023-06-04T11:41:02.973Z,100.00
2023-06-04T11:43:30.955Z,100.00
2023-06-04T11:45:59.729Z,100.00
2023-06-04T11:48:27.037Z,100.00
2023-06-04T11:50:54.824Z,100.00
2023-06-04T11:53:22.061Z,100.00
2023-06-04T11:55:49.049Z,100.00
2023-06-04T11:58:16.840Z,100.00
2023-06-04T12:00:43.799Z,100.00
2023-06-04T12:03:10.820Z,100.00
2023-06-04T12:05:37.842Z,100.00
2023-06-04T12:08:10.633Z,100.00
2023-06-04T12:10:41.788Z,100.00
2023-06-04T12:13:09.432Z,100.00
2023-06-04T12:15:36.482Z,100.00
2023-06-04T12:18:05.647Z,100.00
2023-06-04T12:20:40.612Z,100.00
2023-06-04T12:23:08.478Z,100.00
2023-06-04T12:25:38.759Z,100.00
2023-06-04T12:28:06.727Z,100.00
2023-06-04T12:30:41.202Z,100.00
2023-06-04T12:33:08.619Z,100.00
2023-06-04T12:35:36.198Z,100.00
2023-06-04T12:38:06.715Z,100.00
2023-06-04T12:40:33.829Z,100.00
2023-06-04T12:43:01.091Z,100.00
2023-06-04T12:45:29.959Z,100.00
2023-06-04T12:47:56.814Z,100.00
2023-06-04T12:50:23.628Z,100.00
2023-06-04T12:52:50.990Z,100.00
2023-06-04T12:55:17.768Z,100.00
2023-06-04T12:57:45.954Z,100.00
2023-06-04T13:00:13.878Z,100.00
2023-06-04T13:02:40.808Z,100.00
2023-06-04T13:05:08.733Z,100.00
2023-06-04T13:07:35.710Z,100.00
2023-06-04T13:10:02.623Z,100.00
2023-06-04T13:12:29.363Z,100.00
2023-06-04T13:14:57.194Z,100.00
2023-06-04T13:17:24.178Z,100.00
2023-06-04T13:19:51.394Z,100.00
2023-06-04T13:22:18.305Z,100.00
2023-06-04T13:24:45.205Z,100.00
2023-06-04T13:27:12.009Z,100.00
2023-06-04T13:29:38.906Z,100.00
2023-06-04T13:32:06.139Z,100.00
2023-06-04T13:34:33.421Z,100.00
2023-06-04T13:37:00.522Z,100.00
2023-06-04T13:39:27.629Z,100.00
2023-06-04T13:41:55.448Z,100.00
2023-06-04T13:44:27.442Z,100.00
2023-06-04T13:46:54.962Z,100.00
2023-06-04T13:49:22.462Z,100.00
2023-06-04T13:51:49.332Z,100.00
2023-06-04T13:54:16.151Z,100.00
2023-06-04T13:56:42.974Z,100.00
2023-06-04T13:59:09.759Z,100.00
2023-06-04T14:01:36.585Z,100.00
2023-06-04T14:04:07.607Z,100.00
2023-06-04T14:06:37.285Z,100.00
2023-06-04T14:09:05.150Z,100.00
2023-06-04T14:11:33.779Z,100.00
2023-06-04T14:14:00.768Z,100.00
2023-06-04T14:16:27.738Z,100.00
2023-06-04T14:18:54.859Z,100.00
2023-06-04T14:21:22.982Z,100.00
2023-06-04T14:23:51.499Z,100.00
2023-06-04T14:26:19.034Z,100.00
2023-06-04T14:28:46.063Z,100.00
2023-06-04T14:31:13.034Z,100.00
2023-06-04T14:33:39.971Z,100.00
2023-06-04T14:36:06.724Z,100.00
2023-06-04T14:38:33.588Z,100.00
2023-06-04T14:41:01.010Z,100.00
2023-06-04T14:43:27.817Z,100.00
2023-06-04T14:45:54.559Z,100.00
2023-06-04T14:48:21.435Z,100.00
2023-06-04T14:50:48.282Z,100.00
2023-06-04T14:53:15.094Z,100.00
2023-06-04T14:55:41.987Z,100.00
2023-06-04T14:58:09.398Z,100.00
2023-06-04T15:00:36.816Z,100.00
2023-06-04T15:03:04.353Z,100.00
2023-06-04T15:05:34.970Z,100.00
2023-06-04T15:08:03.101Z,100.00
2023-06-04T15:10:30.145Z,100.00
2023-06-04T15:12:57.855Z,100.00
2023-06-04T15:15:24.792Z,100.00
2023-06-04T15:17:51.996Z,100.00
2023-06-04T15:20:19.237Z,100.00
2023-06-04T15:22:46.662Z,100.00
2023-06-04T15:25:13.821Z,100.00
2023-06-04T15:27:42.113Z,100.00
2023-06-04T15:30:09.403Z,100.00
2023-06-04T15:32:36.623Z,100.00
2023-06-04T15:35:05.141Z,100.00
2023-06-04T15:37:32.161Z,100.00
2023-06-04T15:40:01.030Z,100.00
2023-06-04T15:42:28.263Z,100.00
2023-06-04T15:44:56.621Z,100.00
2023-06-04T15:47:23.633Z,100.00
2023-06-04T15:49:50.740Z,100.00
2023-06-04T15:52:17.867Z,100.00
2023-06-04T15:54:47.019Z,100.00
2023-06-04T15:57:14.653Z,100.00
2023-06-04T15:59:42.376Z,100.00
2023-06-04T16:02:09.340Z,100.00
2023-06-04T16:04:36.341Z,100.00
2023-06-04T16:07:03.877Z,100.00
2023-06-04T16:09:30.762Z,100.00
2023-06-04T16:11:58.132Z,100.00
2023-06-04T16:14:24.902Z,100.00
2023-06-04T16:16:51.873Z,100.00
2023-06-04T16:19:18.774Z,100.00
2023-06-04T16:21:45.845Z,100.00
2023-06-04T16:24:12.906Z,100.00
2023-06-04T16:26:39.880Z,100.00
2023-06-04T16:29:07.032Z,100.00
2023-06-04T16:31:34.267Z,100.00
2023-06-04T16:34:01.297Z,100.00
2023-06-04T16:36:28.167Z,100.00
2023-06-04T16:38:56.627Z,100.00
2023-06-04T16:41:23.760Z,100.00
2023-06-04T16:43:50.734Z,100.00
2023-06-04T16:46:17.617Z,100.00
2023-06-04T16:48:44.856Z,100.00
2023-06-04T16:51:12.690Z,100.00
2023-06-04T16:53:40.358Z,100.00
2023-06-04T16:56:07.476Z,100.00
2023-06-04T16:58:39.488Z,100.00
2023-06-04T17:01:09.689Z,100.00
2023-06-04T17:03:37.515Z,100.00
2023-06-04T17:06:08.072Z,100.00
2023-06-04T17:08:35.349Z,100.00
2023-06-04T17:11:02.242Z,100.00
2023-06-04T17:13:29.732Z,100.00
2023-06-04T17:15:56.612Z,100.00
2023-06-04T17:18:23.858Z,100.00
2023-06-04T17:20:50.757Z,100.00
2023-06-04T17:23:25.538Z,100.00
2023-06-04T17:25:53.488Z,100.00
2023-06-04T17:28:20.711Z,100.00
2023-06-04T17:30:47.800Z,100.00
2023-06-04T17:33:14.817Z,100.00
2023-06-04T17:35:41.871Z,100.00
2023-06-04T17:38:08.729Z,100.00
2023-06-04T17:40:35.583Z,100.00
2023-06-04T17:43:02.361Z,100.00
2023-06-04T17:45:31.590Z,100.00
2023-06-04T17:47:58.715Z,100.00
2023-06-04T17:50:26.076Z,100.00
2023-06-04T17:52:52.831Z,100.00
2023-06-04T17:55:20.178Z,99.81
2023-06-04T17:57:47.048Z,93.19
2023-06-04T18:00:15.007Z,89.90
2023-06-04T18:02:42.315Z,89.53
2023-06-04T18:05:10.321Z,88.20
2023-06-04T18:07:37.374Z,87.15
2023-06-04T18:10:04.677Z,85.47
2023-06-04T18:12:32.811Z,82.74
2023-06-04T18:15:01.317Z,85.83
2023-06-04T18:17:28.164Z,89.96
2023-06-04T18:19:55.015Z,88.67
2023-06-04T18:22:21.920Z,88.63
2023-06-04T18:24:48.742Z,85.19
2023-06-04T18:27:15.625Z,89.39
2023-06-04T18:29:47.141Z,88.57
2023-06-04T18:32:14.375Z,90.36
2023-06-04T18:34:41.179Z,90.15
2023-06-04T18:37:07.964Z,94.94
2023-06-04T18:39:34.883Z,98.52
2023-06-04T18:42:09.271Z,99.72
2023-06-04T18:44:45.382Z,100.00
2023-06-04T18:47:12.201Z,100.00
2023-06-04T18:49:38.986Z,100.00
2023-06-04T18:52:05.867Z,100.00
2023-06-04T18:54:32.823Z,100.00
2023-06-04T18:56:59.868Z,100.00
2023-06-04T18:59:27.028Z,100.00
2023-06-04T19:01:55.928Z,100.00
2023-06-04T19:04:22.889Z,100.00
2023-06-04T19:06:49.747Z,100.00
2023-06-04T19:09:16.864Z,100.00
2023-06-04T19:11:43.877Z,100.00
2023-06-04T19:14:10.709Z,100.00
2023-06-04T19:16:37.504Z,100.00
2023-06-04T19:19:08.729Z,100.00
2023-06-04T19:21:37.624Z,100.00
2023-06-04T19:24:05.308Z,100.00
2023-06-04T19:26:32.191Z,100.00
2023-06-04T19:28:58.963Z,100.00
2023-06-04T19:31:28.799Z,100.00
2023-06-04T19:33:56.576Z,100.00
2023-06-04T19:36:23.345Z,100.00
2023-06-04T19:38:50.190Z,100.00
2023-06-04T19:41:17.776Z,100.00
2023-06-04T19:43:44.740Z,100.00
2023-06-04T19:46:11.548Z,100.00
2023-06-04T19:48:39.525Z,100.00
2023-06-04T19:51:06.363Z,100.00
2023-06-04T19:53:33.228Z,100.00
2023-06-04T19:56:00.310Z,100.00
2023-06-04T19:58:28.009Z,100.00
2023-06-04T20:00:56.099Z,100.00
2023-06-04T20:03:24.275Z,100.00
2023-06-04T20:05:51.247Z,100.00
2023-06-04T20:08:18.243Z,100.00
2023-06-04T20:10:46.502Z,100.00
2023-06-04T20:13:13.318Z,100.00
2023-06-04T20:15:40.145Z,100.00
2023-06-04T20:18:07.506Z,100.00
2023-06-04T20:20:34.451Z,100.00
2023-06-04T20:23:01.234Z,100.00
2023-06-04T20:25:27.984Z,100.00
2023-06-04T20:27:54.768Z,100.00
2023-06-04T20:30:21.553Z,100.00
2023-06-04T20:32:49.784Z,100.00
2023-06-04T20:35:16.772Z,100.00
2023-06-04T20:37:43.628Z,100.00
2023-06-04T20:40:10.696Z,100.00
2023-06-04T20:42:37.498Z,100.00
2023-06-04T20:45:05.238Z,100.00
2023-06-04T20:47:32.085Z,100.00
2023-06-04T20:49:58.896Z,100.00
2023-06-04T20:52:25.744Z,100.00
2023-06-04T20:54:53.624Z,100.00
2023-06-04T20:57:20.384Z,100.00
2023-06-04T20:59:47.208Z,100.00
2023-06-04T21:02:14.103Z,100.00
2023-06-04T21:04:41.137Z,100.00
2023-06-04T21:07:08.012Z,100.00
2023-06-04T21:09:35.006Z,100.00
2023-06-04T21:12:01.769Z,100.00
2023-06-04T21:14:28.615Z,100.00
2023-06-04T21:16:55.525Z,100.00
2023-06-04T21:19:22.290Z,100.00
2023-06-04T21:21:49.099Z,100.00
2023-06-04T21:24:15.896Z,100.00
2023-06-04T21:26:42.671Z,100.00
2023-06-04T21:29:09.480Z,100.00
2023-06-04T21:31:36.400Z,100.00
2023-06-04T21:34:03.395Z,100.00
2023-06-04T21:36:30.612Z,100.00
2023-06-04T21:38:57.593Z,100.00
2023-06-04T21:41:24.531Z,100.00
2023-06-04T21:43:51.420Z,100.00
2023-06-04T21:46:19.069Z,100.00
2023-06-04T21:48:45.854Z,100.00
2023-06-04T21:51:13.428Z,100.00
2023-06-04T21:53:41.072Z,100.00
2023-06-04T21:56:08.030Z,100.00
2023-06-04T21:58:35.292Z,100.00
2023-06-04T22:01:02.189Z,100.00
2023-06-04T22:03:29.642Z,100.00
2023-06-04T22:05:56.560Z,100.00
2023-06-04T22:08:23.357Z,100.00
2023-06-04T22:10:50.194Z,100.00
2023-06-04T22:13:17.127Z,100.00
2023-06-04T22:15:44.222Z,100.00
2023-06-04T22:18:11.355Z,100.00
2023-06-04T22:20:38.235Z,100.00
2023-06-04T22:23:05.069Z,100.00
2023-06-04T22:25:31.861Z,100.00
2023-06-04T22:27:58.660Z,100.00
2023-06-04T22:30:25.630Z,100.00
2023-06-04T22:32:52.651Z,100.00
2023-06-04T22:35:19.717Z,100.00
2023-06-04T22:37:46.551Z,100.00
2023-06-04T22:40:14.400Z,100.00
2023-06-04T22:42:41.700Z,100.00
2023-06-04T22:45:09.338Z,100.00
2023-06-04T22:47:36.739Z,100.00
2023-06-04T22:50:03.939Z,100.00
2023-06-04T22:52:31.862Z,100.00
2023-06-04T22:54:58.754Z,100.00
2023-06-04T22:57:25.835Z,100.00
2023-06-04T22:59:53.323Z,100.00
2023-06-04T23:02:20.129Z,100.00
2023-06-04T23:04:47.020Z,100.00
2023-06-04T23:07:13.779Z,100.00
2023-06-04T23:09:40.808Z,100.00
2023-06-04T23:12:07.789Z,100.00
2023-06-04T23:14:34.552Z,100.00
2023-06-04T23:17:01.559Z,100.00
2023-06-04T23:19:28.637Z,100.00
2023-06-04T23:21:55.640Z,100.00
2023-06-04T23:24:22.437Z,100.00
2023-06-04T23:26:49.667Z,100.00
2023-06-04T23:29:16.490Z,100.00
2023-06-04T23:31:43.422Z,100.00
2023-06-04T23:34:10.288Z,100.00
2023-06-04T23:36:37.216Z,100.00
2023-06-04T23:39:05.222Z,100.00
2023-06-04T23:41:32.571Z,100.00
2023-06-04T23:43:59.372Z,100.00
2023-06-04T23:46:26.360Z,100.00
2023-06-04T23:48:53.203Z,100.00
2023-06-04T23:51:20.181Z,100.00
2023-06-04T23:53:47.534Z,100.00
2023-06-04T23:56:14.590Z,100.00
2023-06-04T23:58:41.777Z,100.00
